createdAt,value
2023-02-20T00:00:44.078Z,93.62
2023-02-20T00:01:44.065Z,93.62
2023-02-20T00:02:44.091Z,93.62
2023-02-20T00:03:44.154Z,93.62
2023-02-20T00:04:44.031Z,93.41
2023-02-20T00:05:44.010Z,93.27
2023-02-20T00:06:43.991Z,93.06
2023-02-20T00:07:43.977Z,93.06
2023-02-20T00:08:43.968Z,93.16
2023-02-20T00:09:44.024Z,93.16
2023-02-20T00:10:44.012Z,93.16
2023-02-20T00:11:44.058Z,93.27
2023-02-20T00:12:43.905Z,93.37
2023-02-20T00:13:43.892Z,93.37
2023-02-20T00:14:43.890Z,93.27
2023-02-20T00:15:43.927Z,93.27
2023-02-20T00:16:43.909Z,93.27
2023-02-20T00:17:43.864Z,93.27
2023-02-20T00:18:43.825Z,93.37
2023-02-20T00:19:43.833Z,93.37
2023-02-20T00:20:43.788Z,93.16
2023-02-20T00:21:43.837Z,93.16
2023-02-20T00:22:43.819Z,93.02
2023-02-20T00:23:43.828Z,93.16
2023-02-20T00:24:43.754Z,93.27
2023-02-20T00:25:43.729Z,93.23
2023-02-20T00:26:43.785Z,93.23
2023-02-20T00:27:43.760Z,93.23
2023-02-20T00:28:43.816Z,93.23
2023-02-20T00:29:43.714Z,93.23
2023-02-20T00:30:43.735Z,93.23
2023-02-20T00:31:43.820Z,93.33
2023-02-20T00:32:43.695Z,93.33
2023-02-20T00:33:43.718Z,93.33
2023-02-20T00:34:43.624Z,93.43
2023-02-20T00:35:43.613Z,93.54
2023-02-20T00:36:43.679Z,93.64
2023-02-20T00:37:43.603Z,93.64
2023-02-20T00:38:43.610Z,93.74
2023-02-20T00:39:43.610Z,93.64
2023-02-20T00:40:43.859Z,93.64
2023-02-20T00:41:43.552Z,93.64
2023-02-20T00:42:43.670Z,93.64
2023-02-20T00:43:43.530Z,93.64
2023-02-20T00:44:43.523Z,93.64
2023-02-20T00:45:43.497Z,93.74
2023-02-20T00:46:43.952Z,93.74
2023-02-20T00:47:43.489Z,93.85
2023-02-20T00:48:44.168Z,93.85
2023-02-20T00:49:43.435Z,93.85
2023-02-20T00:50:43.490Z,93.85
2023-02-20T00:51:43.410Z,93.85
2023-02-20T00:52:43.668Z,93.85
2023-02-20T00:53:43.448Z,93.80
2023-02-20T00:54:43.416Z,93.80
2023-02-20T00:55:43.370Z,93.91
2023-02-20T00:56:43.344Z,93.91
2023-02-20T00:57:43.593Z,93.91
2023-02-20T00:58:43.343Z,93.80
2023-02-20T00:59:43.355Z,93.80
2023-02-20T01:00:43.299Z,93.80
2023-02-20T01:01:43.324Z,93.80
2023-02-20T01:02:43.332Z,93.60
2023-02-20T01:03:43.360Z,93.49
2023-02-20T01:04:43.323Z,93.35
2023-02-20T01:05:43.283Z,92.93
2023-02-20T01:06:43.250Z,92.93
2023-02-20T01:07:43.213Z,92.93
2023-02-20T01:08:43.242Z,92.93
2023-02-20T01:09:43.218Z,93.04
2023-02-20T01:10:43.182Z,93.14
2023-02-20T01:11:43.197Z,93.14
2023-02-20T01:12:43.194Z,93.24
2023-02-20T01:13:43.162Z,93.14
2023-02-20T01:14:43.203Z,93.14
2023-02-20T01:15:43.192Z,93.14
2023-02-20T01:16:43.135Z,93.14
2023-02-20T01:17:43.119Z,93.14
2023-02-20T01:18:43.154Z,93.04
2023-02-20T01:19:43.137Z,93.04
2023-02-20T01:20:44.051Z,92.93
2023-02-20T01:21:43.042Z,93.04
2023-02-20T01:22:43.051Z,92.93
2023-02-20T01:23:43.066Z,92.83
2023-02-20T01:24:44.144Z,92.83
2023-02-20T01:25:44.054Z,92.83
2023-02-20T01:26:43.133Z,92.72
2023-02-20T01:27:43.853Z,92.63
2023-02-20T01:28:42.981Z,92.48
2023-02-20T01:29:42.922Z,92.27
2023-02-20T01:30:43.035Z,92.38
2023-02-20T01:31:43.033Z,92.27
2023-02-20T01:32:42.979Z,92.38
2023-02-20T01:33:42.873Z,92.17
2023-02-20T01:34:42.876Z,92.17
2023-02-20T01:35:42.874Z,91.96
2023-02-20T01:36:42.854Z,91.86
2023-02-20T01:37:43.934Z,91.96
2023-02-20T01:38:43.775Z,92.07
2023-02-20T01:39:42.991Z,92.07
2023-02-20T01:40:42.821Z,92.07
2023-02-20T01:41:42.889Z,91.86
2023-02-20T01:42:42.973Z,91.50
2023-02-20T01:43:43.865Z,91.30
2023-02-20T01:44:42.725Z,91.30
2023-02-20T01:45:42.736Z,91.30
2023-02-20T01:46:42.825Z,91.20
2023-02-20T01:47:42.824Z,91.20
2023-02-20T01:48:43.888Z,91.20
2023-02-20T01:49:42.701Z,91.30
2023-02-20T01:50:42.742Z,91.20
2023-02-20T01:51:43.261Z,91.09
2023-02-20T01:52:42.732Z,91.09
2023-02-20T01:53:42.734Z,90.68
2023-02-20T01:54:42.644Z,90.78
2023-02-20T01:55:43.732Z,90.78
2023-02-20T01:56:42.700Z,90.78
2023-02-20T01:57:42.597Z,90.68
2023-02-20T01:58:42.565Z,90.58
2023-02-20T01:59:42.629Z,90.37
2023-02-20T02:00:42.599Z,90.37
2023-02-20T02:01:42.725Z,90.47
2023-02-20T02:02:43.625Z,90.58
2023-02-20T02:03:42.839Z,90.68
2023-02-20T02:04:43.387Z,90.78
2023-02-20T02:05:42.975Z,90.78
2023-02-20T02:06:43.479Z,90.58
2023-02-20T02:07:43.641Z,90.47
2023-02-20T02:08:42.501Z,90.26
2023-02-20T02:09:42.439Z,90.26
2023-02-20T02:10:42.434Z,89.95
2023-02-20T02:11:42.448Z,90.06
2023-02-20T02:12:43.633Z,90.06
2023-02-20T02:13:42.524Z,90.16
2023-02-20T02:14:42.421Z,90.26
2023-02-20T02:15:42.381Z,90.26
2023-02-20T02:16:42.342Z,90.37
2023-02-20T02:17:43.153Z,90.47
2023-02-20T02:18:42.344Z,90.58
2023-02-20T02:19:42.382Z,90.26
2023-02-20T02:20:42.377Z,90.41
2023-02-20T02:21:42.341Z,90.16
2023-02-20T02:22:42.962Z,90.16
2023-02-20T02:23:42.269Z,90.16
2023-02-20T02:24:42.271Z,90.26
2023-02-20T02:25:42.247Z,90.26
2023-02-20T02:26:42.221Z,90.37
2023-02-20T02:27:42.189Z,90.26
2023-02-20T02:28:42.410Z,90.26
2023-02-20T02:29:42.285Z,90.26
2023-02-20T02:30:42.251Z,90.37
2023-02-20T02:31:42.222Z,90.58
2023-02-20T02:32:42.206Z,90.62
2023-02-20T02:33:43.151Z,90.62
2023-02-20T02:34:42.110Z,90.58
2023-02-20T02:35:42.240Z,90.47
2023-02-20T02:36:42.134Z,90.37
2023-02-20T02:37:42.090Z,90.26
2023-02-20T02:38:42.061Z,90.26
2023-02-20T02:39:43.082Z,90.26
2023-02-20T02:40:42.153Z,90.26
2023-02-20T02:41:42.020Z,90.37
2023-02-20T02:42:42.027Z,90.47
2023-02-20T02:43:42.106Z,90.37
2023-02-20T02:44:42.123Z,90.37
2023-02-20T02:45:41.994Z,90.37
2023-02-20T02:46:42.150Z,89.86
2023-02-20T02:47:41.951Z,89.95
2023-02-20T02:48:42.469Z,89.95
2023-02-20T02:49:43.000Z,90.06
2023-02-20T02:50:42.113Z,90.16
2023-02-20T02:51:41.899Z,90.26
2023-02-20T02:52:42.738Z,90.41
2023-02-20T02:53:42.173Z,90.31
2023-02-20T02:54:41.879Z,90.31
2023-02-20T02:55:43.090Z,90.31
2023-02-20T02:56:41.950Z,90.41
2023-02-20T02:57:41.830Z,90.52
2023-02-20T02:58:41.873Z,90.52
2023-02-20T02:59:42.710Z,90.52
2023-02-20T03:00:42.301Z,90.52
2023-02-20T03:01:41.773Z,90.52
2023-02-20T03:02:41.820Z,90.52
2023-02-20T03:03:41.795Z,90.62
2023-02-20T03:04:41.806Z,90.62
2023-02-20T03:05:41.740Z,90.66
2023-02-20T03:06:41.781Z,90.77
2023-02-20T03:07:41.889Z,90.62
2023-02-20T03:08:41.749Z,90.62
2023-02-20T03:09:41.836Z,90.52
2023-02-20T03:10:41.682Z,90.66
2023-02-20T03:11:41.617Z,90.66
2023-02-20T03:12:42.498Z,90.77
2023-02-20T03:13:41.725Z,90.66
2023-02-20T03:14:41.681Z,90.62
2023-02-20T03:15:41.645Z,90.62
2023-02-20T03:16:41.611Z,90.72
2023-02-20T03:17:41.586Z,90.41
2023-02-20T03:18:41.704Z,90.41
2023-02-20T03:19:41.782Z,90.20
2023-02-20T03:20:41.580Z,90.10
2023-02-20T03:21:41.567Z,90.00
2023-02-20T03:22:41.492Z,89.89
2023-02-20T03:23:41.515Z,89.89
2023-02-20T03:24:41.486Z,90.10
2023-02-20T03:25:41.595Z,90.10
2023-02-20T03:26:41.539Z,90.20
2023-02-20T03:27:41.543Z,90.20
2023-02-20T03:28:41.430Z,90.41
2023-02-20T03:29:41.554Z,90.20
2023-02-20T03:30:41.384Z,90.20
2023-02-20T03:31:41.482Z,90.20
2023-02-20T03:32:41.626Z,90.00
2023-02-20T03:33:42.514Z,90.00
2023-02-20T03:34:41.433Z,90.00
2023-02-20T03:35:41.382Z,89.86
2023-02-20T03:36:41.336Z,89.75
2023-02-20T03:37:41.396Z,89.75
2023-02-20T03:38:41.346Z,89.65
2023-02-20T03:39:41.275Z,89.75
2023-02-20T03:40:41.446Z,89.65
2023-02-20T03:41:41.291Z,89.75
2023-02-20T03:42:41.256Z,89.65
2023-02-20T03:43:41.363Z,89.86
2023-02-20T03:44:42.499Z,89.86
2023-02-20T03:45:41.529Z,89.95
2023-02-20T03:46:42.299Z,90.06
2023-02-20T03:47:41.225Z,90.16
2023-02-20T03:48:41.204Z,89.95
2023-02-20T03:49:41.204Z,89.95
2023-02-20T03:50:42.061Z,89.95
2023-02-20T03:51:41.284Z,90.06
2023-02-20T03:52:41.153Z,90.16
2023-02-20T03:53:41.282Z,90.06
2023-02-20T03:54:41.435Z,90.06
2023-02-20T03:55:41.582Z,90.16
2023-02-20T03:56:41.290Z,90.37
2023-02-20T03:57:41.868Z,90.37
2023-02-20T03:58:41.050Z,90.52
2023-02-20T03:59:41.051Z,90.62
2023-02-20T04:00:41.049Z,90.58
2023-02-20T04:01:41.033Z,90.83
2023-02-20T04:02:41.030Z,90.72
2023-02-20T04:03:40.997Z,90.72
2023-02-20T04:04:41.003Z,90.72
2023-02-20T04:05:40.987Z,90.83
2023-02-20T04:06:40.943Z,90.83
2023-02-20T04:07:40.919Z,91.03
2023-02-20T04:08:41.056Z,91.03
2023-02-20T04:09:40.923Z,91.24
2023-02-20T04:10:41.204Z,91.24
2023-02-20T04:11:40.883Z,91.24
2023-02-20T04:12:41.840Z,91.34
2023-02-20T04:13:40.853Z,91.24
2023-02-20T04:14:40.927Z,90.99
2023-02-20T04:15:40.863Z,90.89
2023-02-20T04:16:42.020Z,90.78
2023-02-20T04:17:40.817Z,90.68
2023-02-20T04:18:40.986Z,90.58
2023-02-20T04:19:40.925Z,90.68
2023-02-20T04:20:40.783Z,90.58
2023-02-20T04:21:40.861Z,90.58
2023-02-20T04:22:41.920Z,90.78
2023-02-20T04:23:40.747Z,90.78
2023-02-20T04:24:41.713Z,90.89
2023-02-20T04:25:40.754Z,90.99
2023-02-20T04:26:40.829Z,90.89
2023-02-20T04:27:41.937Z,90.89
2023-02-20T04:28:41.651Z,90.68
2023-02-20T04:29:41.801Z,90.58
2023-02-20T04:30:40.783Z,90.47
2023-02-20T04:31:40.637Z,90.47
2023-02-20T04:32:41.088Z,90.47
2023-02-20T04:33:40.660Z,90.58
2023-02-20T04:34:40.622Z,90.68
2023-02-20T04:35:40.704Z,90.78
2023-02-20T04:36:40.633Z,90.93
2023-02-20T04:37:40.537Z,91.13
2023-02-20T04:38:40.572Z,91.24
2023-02-20T04:39:40.517Z,91.24
2023-02-20T04:40:40.520Z,91.24
2023-02-20T04:41:40.623Z,91.34
2023-02-20T04:42:40.493Z,91.24
2023-02-20T04:43:40.521Z,91.30
2023-02-20T04:44:40.507Z,91.24
2023-02-20T04:45:40.497Z,91.20
2023-02-20T04:46:40.457Z,90.89
2023-02-20T04:47:40.445Z,90.89
2023-02-20T04:48:40.428Z,90.89
2023-02-20T04:49:41.140Z,90.89
2023-02-20T04:50:41.282Z,90.89
2023-02-20T04:51:40.598Z,90.58
2023-02-20T04:52:40.384Z,90.58
2023-02-20T04:53:40.479Z,90.58
2023-02-20T04:54:40.404Z,90.37
2023-02-20T04:55:40.341Z,90.33
2023-02-20T04:56:40.306Z,90.22
2023-02-20T04:57:40.666Z,90.22
2023-02-20T04:58:40.381Z,90.47
2023-02-20T04:59:40.279Z,90.58
2023-02-20T05:00:40.269Z,90.68
2023-02-20T05:01:40.400Z,90.89
2023-02-20T05:02:40.360Z,90.58
2023-02-20T05:03:40.233Z,90.33
2023-02-20T05:04:40.265Z,90.12
2023-02-20T05:05:40.235Z,90.22
2023-02-20T05:06:40.170Z,90.26
2023-02-20T05:07:41.171Z,90.47
2023-02-20T05:08:40.170Z,90.47
2023-02-20T05:09:40.182Z,90.58
2023-02-20T05:10:40.315Z,90.68
2023-02-20T05:11:40.110Z,90.78
2023-02-20T05:12:40.161Z,90.89
2023-02-20T05:13:40.536Z,90.99
2023-02-20T05:14:40.091Z,91.09
2023-02-20T05:15:40.294Z,91.20
2023-02-20T05:16:40.077Z,91.30
2023-02-20T05:17:40.171Z,91.30
2023-02-20T05:18:40.117Z,91.30
2023-02-20T05:19:40.063Z,91.34
2023-02-20T05:20:40.063Z,91.55
2023-02-20T05:21:40.043Z,91.55
2023-02-20T05:22:40.757Z,91.55
2023-02-20T05:23:40.330Z,91.65
2023-02-20T05:24:40.923Z,91.75
2023-02-20T05:25:40.159Z,91.65
2023-02-20T05:26:39.943Z,91.75
2023-02-20T05:27:40.787Z,91.86
2023-02-20T05:28:40.105Z,91.65
2023-02-20T05:29:40.011Z,91.55
2023-02-20T05:30:39.996Z,91.65
2023-02-20T05:31:41.002Z,91.65
2023-02-20T05:32:39.855Z,91.86
2023-02-20T05:33:40.788Z,91.96
2023-02-20T05:34:40.329Z,92.07
2023-02-20T05:35:40.048Z,92.07
2023-02-20T05:36:39.862Z,92.07
2023-02-20T05:37:39.811Z,92.17
2023-02-20T05:38:39.796Z,92.32
2023-02-20T05:39:39.792Z,92.52
2023-02-20T05:40:40.556Z,92.63
2023-02-20T05:41:40.868Z,92.72
2023-02-20T05:42:39.811Z,92.48
2023-02-20T05:43:39.897Z,92.38
2023-02-20T05:44:39.719Z,92.27
2023-02-20T05:45:39.702Z,92.17
2023-02-20T05:46:39.823Z,92.27
2023-02-20T05:47:39.700Z,92.17
2023-02-20T05:48:39.687Z,92.27
2023-02-20T05:49:40.720Z,92.38
2023-02-20T05:50:39.628Z,92.38
2023-02-20T05:51:40.567Z,92.38
2023-02-20T05:52:40.309Z,92.38
2023-02-20T05:53:40.710Z,92.48
2023-02-20T05:54:39.662Z,92.48
2023-02-20T05:55:39.587Z,92.38
2023-02-20T05:56:40.563Z,92.27
2023-02-20T05:57:39.559Z,92.17
2023-02-20T05:58:40.368Z,92.02
2023-02-20T05:59:39.518Z,91.92
2023-02-20T06:00:40.698Z,91.82
2023-02-20T06:01:39.557Z,91.71
2023-02-20T06:02:40.558Z,91.92
2023-02-20T06:03:39.680Z,91.82
2023-02-20T06:04:39.684Z,91.61
2023-02-20T06:05:40.239Z,91.40
2023-02-20T06:06:39.547Z,91.30
2023-02-20T06:07:39.415Z,91.30
2023-02-20T06:08:39.470Z,91.30
2023-02-20T06:09:40.469Z,91.40
2023-02-20T06:10:40.243Z,91.40
2023-02-20T06:11:39.378Z,91.30
2023-02-20T06:12:39.850Z,91.16
2023-02-20T06:13:40.457Z,91.05
2023-02-20T06:14:39.410Z,91.05
2023-02-20T06:15:39.311Z,91.05
2023-02-20T06:16:39.534Z,91.05
2023-02-20T06:17:39.925Z,91.20
2023-02-20T06:18:39.274Z,91.30
2023-02-20T06:19:40.402Z,91.40
2023-02-20T06:20:39.272Z,91.40
2023-02-20T06:21:39.589Z,91.40
2023-02-20T06:22:40.120Z,91.26
2023-02-20T06:23:40.029Z,91.26
2023-02-20T06:24:39.603Z,91.05
2023-02-20T06:25:39.393Z,90.95
2023-02-20T06:26:39.406Z,91.05
2023-02-20T06:27:39.639Z,91.05
2023-02-20T06:28:40.105Z,91.05
2023-02-20T06:29:39.952Z,90.95
2023-02-20T06:30:39.738Z,90.74
2023-02-20T06:31:39.351Z,90.64
2023-02-20T06:32:39.116Z,90.64
2023-02-20T06:33:40.085Z,90.64
2023-02-20T06:34:39.153Z,90.64
2023-02-20T06:35:39.071Z,90.64
2023-02-20T06:36:39.114Z,90.74
2023-02-20T06:37:39.243Z,90.74
2023-02-20T06:38:39.187Z,90.84
2023-02-20T06:39:39.029Z,90.84
2023-02-20T06:40:39.402Z,90.74
2023-02-20T06:41:39.236Z,90.49
2023-02-20T06:42:38.981Z,90.39
2023-02-20T06:43:38.993Z,90.28
2023-02-20T06:44:38.944Z,90.28
2023-02-20T06:45:39.030Z,90.28
2023-02-20T06:46:38.978Z,90.19
2023-02-20T06:47:38.963Z,90.28
2023-02-20T06:48:38.967Z,90.28
2023-02-20T06:49:38.983Z,90.19
2023-02-20T06:50:38.874Z,89.73
2023-02-20T06:51:38.872Z,89.73
2023-02-20T06:52:38.842Z,89.73
2023-02-20T06:53:38.864Z,89.52
2023-02-20T06:54:39.605Z,89.52
2023-02-20T06:55:38.955Z,89.22
2023-02-20T06:56:38.838Z,89.01
2023-02-20T06:57:38.818Z,88.90
2023-02-20T06:58:38.757Z,88.96
2023-02-20T06:59:38.752Z,88.90
2023-02-20T07:00:39.573Z,88.76
2023-02-20T07:01:39.798Z,88.76
2023-02-20T07:02:38.761Z,88.65
2023-02-20T07:03:38.721Z,88.45
2023-02-20T07:04:38.842Z,88.24
2023-02-20T07:05:38.697Z,88.24
2023-02-20T07:06:38.954Z,88.14
2023-02-20T07:07:38.708Z,87.79
2023-02-20T07:08:38.701Z,87.69
2023-02-20T07:09:39.599Z,87.48
2023-02-20T07:10:38.650Z,87.59
2023-02-20T07:11:38.598Z,87.48
2023-02-20T07:12:38.847Z,87.69
2023-02-20T07:13:38.721Z,87.79
2023-02-20T07:14:38.631Z,87.79
2023-02-20T07:15:38.820Z,87.69
2023-02-20T07:16:39.637Z,87.38
2023-02-20T07:17:38.707Z,87.38
2023-02-20T07:18:39.348Z,87.38
2023-02-20T07:19:38.499Z,87.17
2023-02-20T07:20:38.545Z,86.93
2023-02-20T07:21:38.488Z,87.03
2023-02-20T07:22:39.439Z,87.03
2023-02-20T07:23:39.430Z,87.17
2023-02-20T07:24:39.037Z,87.17
2023-02-20T07:25:38.443Z,87.27
2023-02-20T07:26:38.529Z,87.38
2023-02-20T07:27:38.434Z,87.38
2023-02-20T07:28:38.649Z,87.17
2023-02-20T07:29:38.599Z,87.17
2023-02-20T07:30:38.694Z,87.03
2023-02-20T07:31:38.572Z,86.93
2023-02-20T07:32:38.399Z,86.61
2023-02-20T07:33:38.400Z,86.61
2023-02-20T07:34:38.306Z,86.72
2023-02-20T07:35:38.410Z,86.41
2023-02-20T07:36:38.475Z,86.27
2023-02-20T07:37:38.623Z,86.16
2023-02-20T07:38:38.476Z,86.06
2023-02-20T07:39:38.290Z,86.16
2023-02-20T07:40:40.243Z,86.06
2023-02-20T07:41:38.232Z,85.96
2023-02-20T07:42:38.230Z,86.06
2023-02-20T07:43:38.419Z,85.86
2023-02-20T07:44:39.400Z,86.06
2023-02-20T07:45:38.245Z,86.06
2023-02-20T07:46:38.178Z,86.06
2023-02-20T07:47:38.187Z,85.96
2023-02-20T07:48:39.121Z,85.96
2023-02-20T07:49:38.124Z,86.06
2023-02-20T07:50:38.142Z,85.96
2023-02-20T07:51:38.180Z,85.75
2023-02-20T07:52:38.093Z,85.41
2023-02-20T07:53:39.043Z,85.20
2023-02-20T07:54:39.082Z,84.99
2023-02-20T07:55:38.081Z,85.10
2023-02-20T07:56:38.141Z,84.99
2023-02-20T07:57:39.180Z,84.89
2023-02-20T07:58:38.139Z,84.69
2023-02-20T07:59:38.994Z,84.48
2023-02-20T08:00:38.008Z,84.64
2023-02-20T08:01:38.846Z,84.64
2023-02-20T08:02:37.943Z,84.58
2023-02-20T08:03:37.958Z,84.54
2023-02-20T08:04:38.016Z,84.23
2023-02-20T08:05:48.498Z,84.13
2023-02-20T08:06:39.888Z,84.23
2023-02-20T08:07:37.975Z,84.13
2023-02-20T08:08:38.062Z,83.92
2023-02-20T08:09:37.867Z,84.34
2023-02-20T08:10:38.232Z,84.44
2023-02-20T08:11:38.866Z,83.92
2023-02-20T08:12:37.941Z,83.83
2023-02-20T08:13:38.677Z,83.92
2023-02-20T08:14:37.782Z,84.03
2023-02-20T08:15:37.934Z,84.13
2023-02-20T08:16:37.844Z,83.92
2023-02-20T08:17:46.458Z,83.62
2023-02-20T08:18:38.926Z,83.41
2023-02-20T08:19:37.773Z,83.78
2023-02-20T08:20:37.727Z,83.68
2023-02-20T08:21:38.167Z,83.78
2023-02-20T08:22:41.771Z,83.37
2023-02-20T08:23:38.736Z,83.37
2023-02-20T08:24:37.857Z,82.96
2023-02-20T08:25:37.963Z,83.27
2023-02-20T08:26:37.719Z,82.76
2023-02-20T08:27:37.643Z,82.65
2023-02-20T08:28:38.769Z,82.65
2023-02-20T08:29:37.638Z,82.34
2023-02-20T08:30:38.571Z,82.55
2023-02-20T08:31:37.708Z,82.34
2023-02-20T08:32:37.803Z,82.00
2023-02-20T08:33:37.714Z,82.00
2023-02-20T08:34:37.523Z,82.10
2023-02-20T08:35:38.401Z,81.79
2023-02-20T08:36:37.820Z,81.79
2023-02-20T08:37:38.427Z,82.10
2023-02-20T08:38:37.485Z,81.90
2023-02-20T08:39:37.915Z,82.00
2023-02-20T08:40:37.576Z,81.79
2023-02-20T08:41:37.485Z,81.55
2023-02-20T08:42:37.559Z,81.55
2023-02-20T08:43:37.516Z,81.76
2023-02-20T08:44:37.413Z,81.45
2023-02-20T08:45:37.435Z,81.45
2023-02-20T08:46:37.365Z,81.45
2023-02-20T08:47:37.458Z,80.93
2023-02-20T08:48:37.428Z,81.14
2023-02-20T08:49:37.324Z,80.83
2023-02-20T08:50:38.186Z,80.63
2023-02-20T08:51:37.528Z,80.11
2023-02-20T08:52:37.329Z,80.32
2023-02-20T08:53:38.419Z,80.52
2023-02-20T08:54:37.284Z,80.52
2023-02-20T08:55:38.222Z,80.21
2023-02-20T08:56:37.959Z,80.49
2023-02-20T08:57:37.486Z,80.21
2023-02-20T08:58:38.255Z,79.91
2023-02-20T08:59:38.367Z,80.01
2023-02-20T09:00:37.385Z,79.91
2023-02-20T09:01:37.288Z,80.11
2023-02-20T09:02:38.097Z,79.80
2023-02-20T09:03:37.188Z,79.80
2023-02-20T09:04:38.329Z,79.29
2023-02-20T09:05:39.180Z,79.39
2023-02-20T09:06:38.190Z,79.19
2023-02-20T09:07:37.707Z,79.39
2023-02-20T09:08:37.095Z,79.70
2023-02-20T09:09:37.188Z,79.70
2023-02-20T09:10:37.289Z,79.49
2023-02-20T09:11:38.220Z,79.39
2023-02-20T09:12:37.122Z,79.39
2023-02-20T09:13:37.351Z,79.49
2023-02-20T09:14:37.025Z,79.19
2023-02-20T09:15:37.102Z,79.70
2023-02-20T09:16:37.044Z,79.29
2023-02-20T09:17:37.069Z,79.49
2023-02-20T09:18:37.053Z,79.49
2023-02-20T09:19:37.984Z,79.29
2023-02-20T09:20:37.196Z,79.56
2023-02-20T09:21:37.778Z,79.25
2023-02-20T09:22:36.954Z,79.46
2023-02-20T09:23:37.003Z,79.46
2023-02-20T09:24:36.918Z,79.36
2023-02-20T09:25:36.874Z,79.05
2023-02-20T09:26:37.175Z,79.25
2023-02-20T09:27:36.867Z,79.46
2023-02-20T09:28:37.608Z,79.25
2023-02-20T09:29:37.130Z,78.94
2023-02-20T09:30:36.914Z,79.25
2023-02-20T09:31:37.081Z,79.36
2023-02-20T09:32:37.761Z,78.85
2023-02-20T09:33:37.037Z,79.15
2023-02-20T09:34:36.819Z,79.05
2023-02-20T09:35:36.908Z,78.85
2023-02-20T09:36:37.875Z,78.74
2023-02-20T09:37:36.919Z,78.74
2023-02-20T09:38:36.705Z,78.85
2023-02-20T09:39:37.598Z,79.15
2023-02-20T09:40:37.499Z,79.46
2023-02-20T09:41:37.904Z,78.85
2023-02-20T09:42:36.966Z,79.25
2023-02-20T09:43:36.795Z,79.15
2023-02-20T09:44:37.421Z,79.66
2023-02-20T09:45:36.661Z,79.56
2023-02-20T09:46:36.601Z,79.66
2023-02-20T09:47:37.839Z,79.56
2023-02-20T09:48:36.711Z,79.97
2023-02-20T09:49:36.609Z,80.18
2023-02-20T09:50:36.563Z,79.97
2023-02-20T09:51:36.622Z,80.18
2023-02-20T09:52:36.540Z,79.87
2023-02-20T09:53:36.535Z,80.07
2023-02-20T09:54:37.687Z,80.28
2023-02-20T09:55:37.512Z,80.18
2023-02-20T09:56:36.952Z,80.28
2023-02-20T09:57:36.494Z,80.18
2023-02-20T09:58:37.285Z,80.49
2023-02-20T09:59:36.500Z,80.79
2023-02-20T10:00:36.510Z,81.10
2023-02-20T10:01:36.476Z,81.30
2023-02-20T10:02:36.578Z,81.30
2023-02-20T10:03:36.441Z,81.51
2023-02-20T10:04:36.461Z,81.71
2023-02-20T10:05:36.684Z,81.92
2023-02-20T10:06:36.454Z,81.96
2023-02-20T10:07:36.458Z,82.57
2023-02-20T10:08:37.064Z,82.78
2023-02-20T10:09:36.311Z,82.68
2023-02-20T10:10:36.339Z,82.78
2023-02-20T10:11:36.319Z,82.99
2023-02-20T10:12:37.536Z,83.29
2023-02-20T10:13:37.236Z,83.61
2023-02-20T10:14:36.393Z,83.61
2023-02-20T10:15:37.203Z,83.70
2023-02-20T10:16:36.276Z,83.81
2023-02-20T10:17:36.234Z,83.81
2023-02-20T10:18:37.195Z,84.01
2023-02-20T10:19:36.297Z,84.12
2023-02-20T10:20:36.321Z,84.12
2023-02-20T10:21:36.322Z,84.22
2023-02-20T10:22:36.196Z,84.32
2023-02-20T10:23:36.876Z,84.53
2023-02-20T10:24:37.080Z,84.63
2023-02-20T10:25:37.160Z,84.42
2023-02-20T10:26:36.157Z,84.53
2023-02-20T10:27:36.100Z,84.94
2023-02-20T10:28:37.027Z,84.74
2023-02-20T10:29:36.091Z,84.84
2023-02-20T10:30:36.079Z,85.04
2023-02-20T10:31:36.180Z,85.04
2023-02-20T10:32:36.046Z,85.14
2023-02-20T10:33:37.019Z,85.14
2023-02-20T10:34:36.493Z,85.25
2023-02-20T10:35:36.147Z,85.35
2023-02-20T10:36:37.677Z,85.46
2023-02-20T10:37:47.069Z,85.35
2023-02-20T10:38:36.963Z,85.55
2023-02-20T10:39:36.967Z,85.55
2023-02-20T10:40:35.929Z,85.66
2023-02-20T10:41:36.757Z,85.55
2023-02-20T10:42:36.907Z,85.86
2023-02-20T10:43:37.074Z,86.07
2023-02-20T10:44:46.373Z,85.97
2023-02-20T10:45:37.323Z,86.07
2023-02-20T10:46:48.275Z,86.07
2023-02-20T10:47:36.910Z,86.27
2023-02-20T10:48:36.598Z,86.27
2023-02-20T10:49:37.018Z,86.27
2023-02-20T10:50:35.805Z,86.38
2023-02-20T10:51:36.819Z,86.48
2023-02-20T10:52:35.821Z,86.58
2023-02-20T10:53:36.633Z,86.68
2023-02-20T10:54:35.848Z,86.58
2023-02-20T10:55:36.947Z,86.58
2023-02-20T10:56:36.852Z,86.68
2023-02-20T10:57:35.838Z,86.68
2023-02-20T10:58:37.160Z,86.68
2023-02-20T10:59:35.717Z,86.79
2023-02-20T11:00:35.707Z,86.89
2023-02-20T11:01:36.288Z,86.99
2023-02-20T11:02:35.652Z,87.20
2023-02-20T11:03:35.762Z,87.20
2023-02-20T11:04:35.825Z,87.30
2023-02-20T11:05:36.007Z,87.30
2023-02-20T11:06:35.640Z,87.40
2023-02-20T11:07:35.590Z,87.51
2023-02-20T11:08:35.570Z,87.61
2023-02-20T11:09:36.113Z,87.40
2023-02-20T11:10:36.531Z,87.61
2023-02-20T11:11:36.498Z,87.61
2023-02-20T11:12:35.516Z,87.61
2023-02-20T11:13:35.664Z,87.61
2023-02-20T11:14:41.568Z,87.92
2023-02-20T11:15:37.596Z,87.92
2023-02-20T11:16:35.584Z,87.71
2023-02-20T11:17:35.475Z,87.82
2023-02-20T11:18:35.461Z,87.82
2023-02-20T11:19:35.514Z,87.82
2023-02-20T11:20:36.594Z,87.61
2023-02-20T11:21:35.418Z,87.82
2023-02-20T11:22:35.501Z,87.82
2023-02-20T11:23:36.846Z,88.02
2023-02-20T11:24:35.631Z,87.92
2023-02-20T11:25:35.397Z,88.02
2023-02-20T11:26:35.492Z,87.92
2023-02-20T11:27:36.429Z,88.02
2023-02-20T11:28:35.313Z,88.23
2023-02-20T11:29:35.445Z,88.43
2023-02-20T11:30:35.361Z,88.33
2023-02-20T11:31:36.116Z,88.43
2023-02-20T11:32:36.472Z,88.33
2023-02-20T11:33:36.370Z,88.53
2023-02-20T11:34:35.437Z,88.43
2023-02-20T11:35:35.247Z,88.53
2023-02-20T11:36:35.244Z,88.64
2023-02-20T11:37:40.093Z,88.84
2023-02-20T11:38:36.222Z,88.74
2023-02-20T11:39:36.303Z,88.74
2023-02-20T11:40:35.463Z,88.64
2023-02-20T11:41:35.188Z,88.74
2023-02-20T11:42:35.239Z,88.64
2023-02-20T11:43:35.274Z,88.64
2023-02-20T11:44:35.155Z,88.64
2023-02-20T11:45:36.249Z,88.84
2023-02-20T11:46:35.109Z,88.95
2023-02-20T11:47:35.768Z,89.15
2023-02-20T11:48:35.949Z,88.95
2023-02-20T11:49:35.475Z,89.04
2023-02-20T11:50:35.094Z,89.15
2023-02-20T11:51:35.075Z,89.04
2023-02-20T11:52:35.021Z,89.15
2023-02-20T11:53:35.408Z,88.95
2023-02-20T11:54:35.921Z,89.04
2023-02-20T11:55:35.422Z,89.25
2023-02-20T11:56:35.460Z,89.25
2023-02-20T11:57:35.049Z,89.25
2023-02-20T11:58:34.955Z,89.36
2023-02-20T11:59:35.349Z,89.56
2023-02-20T12:00:36.437Z,89.76
2023-02-20T12:01:35.914Z,89.66
2023-02-20T12:02:35.001Z,89.66
2023-02-20T12:03:34.899Z,89.97
2023-02-20T12:04:34.858Z,89.97
2023-02-20T12:05:35.023Z,90.18
2023-02-20T12:06:34.841Z,90.12
2023-02-20T12:07:34.847Z,90.42
2023-02-20T12:08:35.575Z,90.42
2023-02-20T12:09:34.796Z,90.53
2023-02-20T12:10:34.845Z,90.53
2023-02-20T12:11:35.782Z,90.63
2023-02-20T12:12:34.774Z,90.73
2023-02-20T12:13:35.627Z,90.73
2023-02-20T12:14:34.752Z,91.04
2023-02-20T12:15:34.710Z,90.89
2023-02-20T12:16:35.938Z,90.83
2023-02-20T12:17:34.823Z,91.00
2023-02-20T12:18:35.625Z,91.00
2023-02-20T12:19:35.546Z,91.14
2023-02-20T12:20:35.431Z,91.55
2023-02-20T12:21:35.719Z,91.86
2023-02-20T12:22:34.873Z,91.86
2023-02-20T12:23:34.637Z,91.86
2023-02-20T12:24:34.593Z,92.07
2023-02-20T12:25:34.597Z,91.97
2023-02-20T12:26:34.669Z,91.97
2023-02-20T12:27:34.719Z,92.07
2023-02-20T12:28:34.560Z,92.07
2023-02-20T12:29:34.746Z,92.27
2023-02-20T12:30:35.565Z,92.17
2023-02-20T12:31:34.708Z,92.48
2023-02-20T12:32:34.745Z,92.48
2023-02-20T12:33:34.642Z,92.79
2023-02-20T12:34:35.627Z,92.58
2023-02-20T12:35:35.562Z,92.58
2023-02-20T12:36:34.481Z,92.48
2023-02-20T12:37:35.339Z,92.48
2023-02-20T12:38:34.451Z,92.48
2023-02-20T12:39:34.437Z,92.38
2023-02-20T12:40:34.558Z,92.48
2023-02-20T12:41:34.373Z,92.69
2023-02-20T12:42:35.391Z,92.89
2023-02-20T12:43:34.363Z,93.20
2023-02-20T12:44:34.383Z,93.40
2023-02-20T12:45:34.492Z,93.65
2023-02-20T12:46:34.533Z,94.17
2023-02-20T12:47:34.555Z,94.27
2023-02-20T12:48:35.063Z,94.68
2023-02-20T12:49:34.427Z,94.99
2023-02-20T12:50:35.126Z,95.50
2023-02-20T12:51:34.422Z,95.71
2023-02-20T12:52:34.430Z,95.81